Latest Weather Observations for Moruya Airport

IDN60901

Issued at 5:45 pm EST Friday 25 April 2014 (issued every 10 minutes, with the page automatically refreshed every 10 minutes)

About weather observations | Map of Canberra area stations | Latest observations for Canberra area | Other Formats
Station Details ID: 069148 Name: MORUYA AIRPORT AWS Lat: -35.90 Lon: 150.14 Height: 4.0 m
Data from the previous 72 hours. | See also: Recent months for locations in Aust Capital Territory
Date/Time
EST
Tmp

°C
App
Tmp
°C
Dew
Point
°C
Rel
Hum
%
Delta-T

°C
Wind Press
QNH
hPa
Press
MSL
hPa
Rain
since
9 am
mm
Dir
 
Spd
km/h
Gust
km/h
Spd
kts
Gust
kts
25/05:30pm 17.6 17.4 13.5 77 2.3 N 7 7 4 4 1018.3 - 0.0
25/05:00pm 17.9 17.2 13.2 74 2.6 N 9 15 5 8 1018.1 - 0.0
25/04:30pm 18.8 17.7 13.2 70 3.2 N 11 17 6 9 1018.4 - 0.0
25/04:00pm 18.7 17.1 12.7 68 3.4 N 13 17 7 9 1018.8 - 0.0
25/03:30pm 18.9 17.4 11.9 64 3.9 N 11 17 6 9 1018.9 - 0.0
25/03:00pm 19.4 18.2 11.7 61 4.2 N 9 13 5 7 1019.1 1019.0 0.0
25/02:30pm 19.2 17.2 11.5 61 4.2 NNE 13 15 7 8 1019.5 - 0.0
25/02:00pm 19.5 17.3 10.8 57 4.7 N 13 17 7 9 1019.8 - 0.0
25/01:30pm 20.8 19.9 11.2 54 5.3 N 7 13 4 7 1020.1 - 0.0
25/01:00pm 20.0 18.4 10.1 53 5.3 W 9 15 5 8 1020.7 - 0.0
25/12:30pm 19.0 17.2 9.5 54 5.0 WNW 9 15 5 8 1021.4 - 0.0
25/12:00pm 17.9 16.2 8.5 54 4.8 W 7 11 4 6 1022.1 1022.0 0.0
25/11:30am 17.6 14.5 5.5 45 5.9 W 11 17 6 9 1022.7 - 0.0
25/11:00am 16.9 15.1 7.8 55 4.6 W 7 11 4 6 1023.2 - 0.0
25/10:30am 16.2 14.3 7.4 56 4.4 WNW 7 15 4 8 1023.5 - 0.0
25/10:00am 16.6 14.4 7.8 56 4.4 W 9 15 5 8 1023.4 - 0.0
25/09:30am 15.2 13.0 8.0 62 3.6 WNW 9 15 5 8 1023.8 - 0.0
25/09:00am 14.9 12.6 7.5 61 3.6 W 9 13 5 7 1023.7 1023.6 0.0
25/08:30am 14.9 12.5 7.0 59 3.9 W 9 13 5 7 1023.9 - 0.0
25/08:00am 13.9 11.2 5.8 58 3.8 W 9 15 5 8 1023.7 - 0.0
25/07:30am 13.1 10.8 5.5 60 3.6 W 7 11 4 6 1023.5 - 0.0
25/07:00am 12.8 10.0 5.2 60 3.5 W 9 11 5 6 1023.2 - 0.0
25/06:30am 12.6 9.9 5.8 63 3.2 WSW 9 13 5 7 1022.9 - 0.0
25/06:00am 12.2 9.5 5.8 65 3.0 W 9 13 5 7 1022.7 1022.6 0.0
25/05:30am 11.0 8.1 6.4 73 2.2 W 11 13 6 7 1022.4 - 0.0
25/05:00am 10.5 8.0 6.5 76 1.9 W 9 11 5 6 1022.2 - 0.0
25/04:30am 11.3 9.1 6.0 70 2.5 W 7 9 4 5 1021.9 - 0.0
25/04:00am 12.5 10.2 5.9 64 3.1 WSW 7 11 4 6 1021.8 - 0.0
25/03:30am 13.4 10.0 5.8 60 3.6 SW 13 20 7 11 1021.6 - 0.0
25/03:00am 14.3 10.8 5.4 55 4.2 SSW 13 20 7 11 1021.6 1021.5 0.0
25/02:30am 14.5 9.9 5.6 55 4.2 S 19 24 10 13 1021.6 - 0.0
25/02:00am 14.7 10.1 5.8 55 4.2 SSW 19 24 10 13 1021.6 - 0.0
25/01:30am 15.0 10.8 5.8 54 4.4 SSW 17 24 9 13 1021.5 - 0.0
25/01:00am 15.1 11.0 6.4 56 4.2 S 17 26 9 14 1021.2 - 0.0
25/12:30am 15.4 11.1 6.9 57 4.2 S 19 24 10 13 1020.9 - 0.0
25/12:00am 15.7 11.9 7.7 59 4.0 S 17 22 9 12 1020.6 1020.5 0.0
 
Date/Time
EST
Tmp

°C
App
Tmp
°C
Dew
Point
°C
Rel
Hum
%
Delta-T

°C
Wind Press
QNH
hPa
Press
MSL
hPa
Rain
since
9 am
mm
Dir
 
Spd
km/h
Gust
km/h
Spd
kts
Gust
kts
24/11:30pm 15.8 12.6 8.5 62 3.7 SSW 15 22 8 12 1020.2 - 0.0
24/11:00pm 15.9 13.6 8.9 63 3.6 SSW 11 20 6 11 1020.0 - 0.0
24/10:30pm 16.0 13.4 9.4 65 3.4 SSW 13 19 7 10 1019.8 - 0.0
24/10:00pm 16.2 12.9 9.6 65 3.4 S 17 24 9 13 1019.5 - 0.0
24/09:30pm 16.4 13.7 10.5 68 3.1 S 15 20 8 11 1019.1 - 0.0
24/09:00pm 16.5 13.8 10.4 67 3.2 S 15 24 8 13 1018.7 1018.6 0.0
24/08:30pm 17.1 14.3 11.4 69 3.1 S 17 24 9 13 1018.2 - 0.0
24/08:00pm 18.1 14.7 12.5 70 3.1 SSE 22 32 12 17 1017.8 - 0.0
24/07:30pm 18.2 14.6 12.9 71 3.0 SSE 24 37 13 20 1017.4 - 0.0
24/07:00pm 18.6 14.8 13.7 73 2.8 SSE 26 35 14 19 1016.9 - 0.0
24/06:30pm 19.1 16.0 13.5 70 3.2 SSE 22 33 12 18 1016.3 - 0.0
24/06:00pm 19.5 15.4 13.9 70 3.2 SSE 28 37 15 20 1015.1 1015.0 0.0
24/05:30pm 20.2 16.6 14.3 69 3.4 SSE 26 37 14 20 1014.3 - 0.0
24/05:00pm 20.8 17.8 15.8 73 3.0 SSE 26 35 14 19 1013.6 - 0.0
24/04:30pm 23.3 21.3 14.0 56 5.4 S 17 24 9 13 1012.6 - 0.0
24/04:00pm 24.0 22.2 14.4 55 5.7 SSE 17 20 9 11 1011.8 - 0.0
24/03:30pm 24.1 22.6 14.2 54 5.8 SSE 15 20 8 11 1011.4 - 0.0
24/03:00pm 24.8 24.1 15.4 56 5.7 E 13 17 7 9 1010.9 1010.8 0.0
24/02:30pm 24.6 24.1 15.8 58 5.3 SE 13 20 7 11 1010.6 - 0.0
24/02:00pm 26.1 24.8 12.5 42 7.9 E 11 15 6 8 1010.1 - 0.0
24/01:30pm 25.5 24.2 13.7 48 6.9 ESE 13 19 7 10 1010.0 - 0.0
24/01:00pm 25.0 23.2 13.2 48 6.9 ESE 15 19 8 10 1010.1 - 0.0
24/12:30pm 24.7 23.3 13.3 49 6.6 ENE 13 15 7 8 1010.3 - 0.0
24/12:00pm 25.1 23.7 13.3 48 6.9 ENE 13 15 7 8 1010.5 1010.4 0.0
24/11:30am 24.4 22.5 13.0 49 6.6 NE 15 19 8 10 1010.8 - 0.0
24/11:00am 24.9 23.9 12.2 45 7.3 NNE 9 13 5 7 1011.0 - 0.0
24/10:30am 23.6 24.1 12.9 51 6.2 SW 2 7 1 4 1011.2 - 0.0
24/10:00am 21.2 20.7 12.6 58 4.9 N 7 11 4 6 1011.2 - 0.0
24/09:30am 20.6 19.3 12.6 60 4.5 N 11 15 6 8 1011.1 - 0.0
24/09:00am 20.4 18.9 11.9 58 4.7 N 11 15 6 8 1011.2 1011.1 0.0
24/08:30am 19.1 18.1 13.5 70 3.2 N 11 17 6 9 1011.1 - 0.0
24/08:00am 17.8 17.7 12.0 69 3.2 N 4 11 2 6 1010.6 - 0.0
24/07:30am 16.9 15.5 12.2 74 2.6 N 11 19 6 10 1010.3 - 0.0
24/07:00am 14.6 14.2 13.0 90 0.9 N 7 11 4 6 1010.1 - 0.0
24/06:30am 14.5 15.4 13.0 91 0.8 CALM 0 0 0 0 1009.9 - 0.0
24/06:00am 14.9 15.4 12.8 87 1.2 NW 2 7 1 4 1009.9 1009.8 0.0
24/05:30am 15.5 15.7 13.2 86 1.3 WNW 4 7 2 4 1010.0 - 0.0
24/05:00am 16.5 16.0 11.9 74 2.5 N 6 9 3 5 1010.1 - 0.0
24/04:30am 17.3 16.5 11.8 70 3.0 NNW 7 11 4 6 1010.1 - 0.0
24/04:00am 17.5 16.4 11.8 69 3.1 NNW 9 15 5 8 1010.1 - 0.0
24/03:30am 17.1 16.0 11.8 71 2.9 NNW 9 13 5 7 1010.1 - 0.0
24/03:00am 17.0 15.9 12.1 73 2.7 NW 9 15 5 8 1010.3 1010.2 0.0
24/02:30am 14.8 13.9 12.7 87 1.2 N 9 13 5 7 1010.7 - 0.0
24/02:00am 14.8 13.7 13.2 90 0.9 N 11 13 6 7 1010.9 - 0.0
24/01:30am 14.4 14.0 13.1 92 0.7 N 7 9 4 5 1011.3 - 0.0
24/01:00am 14.9 15.2 13.3 90 0.9 NNE 4 7 2 4 1011.5 - 0.0
24/12:30am 14.5 14.2 13.4 93 0.6 N 7 9 4 5 1011.6 - 0.0
24/12:00am 14.9 15.2 13.3 90 0.9 N 4 7 2 4 1011.9 1011.8 0.0
 
Date/Time
EST
Tmp

°C
App
Tmp
°C
Dew
Point
°C
Rel
Hum
%
Delta-T

°C
Wind Press
QNH
hPa
Press
MSL
hPa
Rain
since
9 am
mm
Dir
 
Spd
km/h
Gust
km/h
Spd
kts
Gust
kts
23/11:30pm 14.8 14.7 13.3 91 0.8 N 6 9 3 5 1012.0 - 0.0
23/11:00pm 14.3 15.3 13.3 94 0.6 CALM 0 0 0 0 1012.3 - 0.0
23/10:30pm 14.3 15.3 13.3 94 0.6 CALM 0 0 0 0 1012.6 - 0.0
23/10:00pm 14.5 14.3 13.5 94 0.6 NW 7 9 4 5 1012.7 - 0.0
23/09:30pm 14.7 14.5 13.6 93 0.6 N 7 9 4 5 1012.8 - 0.0
23/09:00pm 14.6 14.4 13.1 91 0.8 N 6 9 3 5 1013.0 1012.9 0.0
23/08:30pm 15.1 15.8 13.5 90 0.9 NW 2 7 1 4 1013.1 - 0.0
23/08:00pm 15.6 15.3 13.4 87 1.2 NNW 7 9 4 5 1013.1 - 0.0
23/07:30pm 16.1 15.9 14.6 91 0.9 NNW 9 11 5 6 1013.1 - 0.0
23/07:00pm 16.4 16.4 15.1 92 0.8 N 9 13 5 7 1013.1 - 0.0
23/06:30pm 16.5 16.9 14.7 89 1.0 N 6 9 3 5 1012.9 - 0.0
23/06:00pm 16.9 17.0 14.0 83 1.6 N 6 7 3 4 1012.8 1012.7 0.0
23/05:30pm 19.3 19.5 14.1 72 3.0 N 6 9 3 5 1012.6 - 0.0
23/05:00pm 21.7 21.7 14.1 62 4.4 NNW 7 11 4 6 1012.3 - 0.0
23/04:30pm 23.5 23.9 16.3 64 4.4 N 9 13 5 7 1012.1 - 0.0
23/04:00pm 23.2 22.6 16.7 67 4.0 N 15 24 8 13 1012.1 - 0.0
23/03:30pm 22.9 21.5 14.5 59 5.0 NE 15 19 8 10 1012.2 - 0.0
23/03:00pm 23.4 23.1 15.5 61 4.7 N 11 15 6 8 1012.3 1012.2 0.0
23/02:30pm 21.7 22.3 17.7 78 2.5 N 11 17 6 9 1012.5 - 0.0
23/02:00pm 20.9 21.7 17.3 80 2.2 N 9 13 5 7 1012.7 - 0.0
23/01:30pm 21.3 21.1 17.7 80 2.2 NNE 15 20 8 11 1013.2 - 0.0
23/01:00pm 21.7 20.6 17.3 76 2.7 NNE 19 26 10 14 1013.4 - 0.0
23/12:30pm 21.3 21.0 17.3 78 2.5 NE 15 19 8 10 1014.3 - 0.0
23/12:00pm 20.6 21.6 16.8 79 2.3 NNE 7 9 4 5 1015.1 1015.0 0.0
23/11:30am 20.6 20.7 14.5 68 3.6 ENE 7 11 4 6 1015.7 - 0.0
23/11:00am 21.9 21.7 13.5 59 4.8 ENE 7 11 4 6 1016.2 - 0.0
23/10:30am 19.9 20.0 13.8 68 3.5 SW 6 9 3 5 1016.7 - 0.0
23/10:00am 19.2 18.5 13.2 68 3.4 WSW 9 15 5 8 1017.2 - 0.0
23/09:30am 19.7 19.2 12.7 64 3.9 WSW 7 11 4 6 1017.0 - 0.0
23/09:00am 20.6 20.4 13.6 64 4.0 W 7 11 4 6 1016.8 1016.7 0.0
23/08:30am 18.8 18.2 13.6 72 3.0 WSW 9 15 5 8 1017.0 - 0.0
23/08:00am 18.3 17.6 13.2 72 2.9 W 9 13 5 7 1017.0 - 0.0
23/07:30am 16.2 16.0 12.9 81 1.8 WSW 6 9 3 5 1017.0 - 0.0
23/07:00am 15.1 14.1 12.2 83 1.6 W 9 15 5 8 1016.9 - 0.0
23/06:30am 14.7 13.9 11.8 83 1.6 SW 7 11 4 6 1016.4 - 0.0
23/06:00am 15.0 13.6 12.3 84 1.5 W 11 15 6 8 1016.4 1016.3 0.0
23/05:30am 15.4 14.3 12.0 80 1.8 WSW 9 11 5 6 1016.3 - 0.0
23/05:00am 15.4 14.0 12.2 81 1.7 W 11 15 6 8 1016.4 - 0.0
23/04:30am 14.9 14.4 12.6 86 1.3 W 7 11 4 6 1016.0 - 0.0
23/04:00am 15.4 14.8 12.2 81 1.7 W 7 9 4 5 1016.2 - 0.0
23/03:30am 15.3 14.0 12.4 83 1.6 W 11 15 6 8 1016.1 - 0.0
23/03:00am 15.4 14.3 12.0 80 1.8 W 9 15 5 8 1016.0 1015.9 0.0
23/02:30am 14.9 12.6 13.1 89 1.0 SW 17 20 9 11 1015.8 - 0.0
23/02:00am 14.5 14.1 12.4 87 1.1 W 6 9 3 5 1015.9 - 0.0
23/01:30am 13.7 14.2 12.8 94 0.5 WSW 2 7 1 4 1016.0 - 0.0
23/01:00am 13.6 14.6 13.3 98 0.2 CALM 0 0 0 0 1016.0 - 0.0
23/12:30am 13.5 13.7 13.2 98 0.2 W 4 7 2 4 1016.1 - 0.0
23/12:00am 13.3 14.2 13.0 98 0.2 CALM 0 0 0 0 1015.8 1015.7 0.0
 
Date/Time
EST
Tmp

°C
App
Tmp
°C
Dew
Point
°C
Rel
Hum
%
Delta-T

°C
Wind Press
QNH
hPa
Press
MSL
hPa
Rain
since
9 am
mm
Dir
 
Spd
km/h
Gust
km/h
Spd
kts
Gust
kts
22/11:30pm 13.4 13.0 13.1 98 0.2 WNW 7 9 4 5 1015.9 - 0.0
22/11:00pm 13.4 13.0 13.1 98 0.2 WSW 7 11 4 6 1016.1 - 0.0
22/10:30pm 13.7 13.4 13.4 98 0.2 NW 7 11 4 6 1016.0 - 0.0
22/10:00pm 13.6 12.8 13.0 96 0.3 W 9 11 5 6 1016.1 - 0.0
22/09:30pm 14.0 13.4 13.4 96 0.3 W 9 13 5 7 1016.0 - 0.0
22/09:00pm 14.7 14.2 13.7 94 0.6 WSW 9 13 5 7 1015.9 1015.8 0.0
22/08:30pm 14.7 14.3 13.1 90 0.9 WSW 7 9 4 5 1015.7 - 0.0
22/08:00pm 16.7 15.9 12.8 78 2.2 WSW 9 11 5 6 1015.6 - 0.0
22/07:30pm 18.3 17.3 13.4 73 2.8 WSW 11 13 6 7 1015.5 - 0.0
22/07:00pm 18.3 17.8 13.8 75 2.6 WSW 9 13 5 7 1015.3 - 0.0
22/06:30pm 19.2 18.1 14.2 73 2.9 WSW 13 15 7 8 1015.0 - 0.0
22/06:00pm 19.7 18.3 14.5 72 3.0 SW 15 20 8 11 1014.5 1014.4 0.0

Latest Capital City Observations: Canberra | Sydney | Melbourne | Brisbane | Adelaide | Perth | Hobart | Darwin

Other Formats:

Comma delimited format used in spreadsheet applications
http://www.bom.gov.au/fwo/IDN60903/IDN60903.95937.axf

JavaScript Object Notation format (JSON) in row-major order
http://www.bom.gov.au/fwo/IDN60903/IDN60903.95937.json